createdAt,value
2022-09-06T00:00:43.593Z,84.25
2022-09-06T00:03:10.111Z,84.31
2022-09-06T00:05:37.658Z,84.51
2022-09-06T00:08:05.855Z,84.59
2022-09-06T00:10:33.132Z,84.68
2022-09-06T00:13:08.578Z,84.40
2022-09-06T00:15:36.809Z,84.29
2022-09-06T00:18:06.341Z,84.52
2022-09-06T00:20:33.455Z,84.84
2022-09-06T00:23:02.160Z,84.57
2022-09-06T00:25:30.584Z,84.86
2022-09-06T00:27:58.852Z,85.23
2022-09-06T00:30:26.344Z,85.18
2022-09-06T00:32:54.622Z,84.80
2022-09-06T00:35:23.126Z,84.36
2022-09-06T00:37:49.475Z,84.43
2022-09-06T00:40:16.309Z,84.16
2022-09-06T00:42:42.868Z,84.84
2022-09-06T00:45:11.354Z,84.66
2022-09-06T00:47:42.142Z,84.28
2022-09-06T00:50:10.905Z,84.64
2022-09-06T00:52:39.103Z,84.11
2022-09-06T00:55:06.987Z,84.64
2022-09-06T00:57:34.899Z,84.52
2022-09-06T01:00:04.210Z,84.45
2022-09-06T01:02:31.106Z,84.65
2022-09-06T01:04:57.870Z,84.96
2022-09-06T01:07:44.653Z,84.69
2022-09-06T01:10:20.015Z,85.06
2022-09-06T01:13:22.031Z,85.31
2022-09-06T01:16:13.594Z,84.75
2022-09-06T01:18:53.021Z,85.07
2022-09-06T01:21:25.470Z,85.47
2022-09-06T01:24:14.055Z,85.14
2022-09-06T01:26:59.346Z,84.70
2022-09-06T01:29:47.371Z,84.58
2022-09-06T01:32:32.046Z,84.72
2022-09-06T01:35:08.206Z,85.26
2022-09-06T01:37:34.938Z,85.34
2022-09-06T01:40:01.510Z,85.05
2022-09-06T01:42:31.273Z,84.85
2022-09-06T01:45:19.136Z,85.63
2022-09-06T01:48:07.468Z,85.61
2022-09-06T01:51:01.230Z,85.12
2022-09-06T01:53:47.303Z,85.70
2022-09-06T01:56:32.478Z,85.58
2022-09-06T01:59:11.515Z,85.16
2022-09-06T02:01:43.846Z,84.60
2022-09-06T02:04:10.716Z,85.16
2022-09-06T02:06:45.015Z,85.62
2022-09-06T02:09:16.544Z,85.55
2022-09-06T02:11:50.624Z,85.59
2022-09-06T02:14:24.438Z,85.40
2022-09-06T02:16:54.847Z,85.50
2022-09-06T02:19:33.235Z,85.02
2022-09-06T02:22:03.734Z,85.19
2022-09-06T02:24:32.960Z,84.37
2022-09-06T02:26:59.443Z,84.75
2022-09-06T02:29:26.227Z,85.27
2022-09-06T02:31:59.632Z,84.92
2022-09-06T02:34:26.199Z,84.92
2022-09-06T02:36:54.060Z,84.83
2022-09-06T02:39:21.199Z,85.22
2022-09-06T02:41:48.259Z,85.46
2022-09-06T02:44:15.355Z,85.14
2022-09-06T02:46:42.629Z,85.67
2022-09-06T02:49:08.999Z,86.44
2022-09-06T02:51:39.322Z,86.18
2022-09-06T02:54:07.644Z,85.80
2022-09-06T02:56:36.400Z,85.48
2022-09-06T02:59:05.409Z,85.39
2022-09-06T03:01:33.427Z,84.78
2022-09-06T03:03:59.860Z,84.95
2022-09-06T03:06:26.223Z,84.88
2022-09-06T03:08:53.073Z,85.11
2022-09-06T03:11:19.462Z,84.88
2022-09-06T03:13:45.850Z,84.89
2022-09-06T03:16:12.806Z,85.57
2022-09-06T03:18:40.017Z,85.17
2022-09-06T03:21:06.378Z,85.37
2022-09-06T03:23:33.864Z,85.65
2022-09-06T03:26:00.279Z,85.53
2022-09-06T03:28:26.920Z,85.30
2022-09-06T03:30:54.204Z,85.05
2022-09-06T03:33:20.901Z,85.52
2022-09-06T03:35:56.354Z,86.24
2022-09-06T03:38:23.675Z,85.85
2022-09-06T03:40:50.574Z,85.52
2022-09-06T03:43:18.651Z,85.75
2022-09-06T03:45:49.791Z,85.75
2022-09-06T03:48:18.607Z,85.10
2022-09-06T03:50:46.693Z,85.15
2022-09-06T03:53:14.147Z,85.67
2022-09-06T03:55:41.079Z,84.94
2022-09-06T03:58:07.435Z,84.89
2022-09-06T04:00:33.918Z,85.43
2022-09-06T04:03:01.919Z,85.96
2022-09-06T04:05:28.601Z,85.95
2022-09-06T04:07:55.047Z,85.41
2022-09-06T04:10:22.064Z,85.07
2022-09-06T04:12:48.410Z,86.22
2022-09-06T04:15:14.896Z,87.56
2022-09-06T04:17:45.823Z,87.53
2022-09-06T04:20:15.814Z,87.24
2022-09-06T04:22:42.207Z,86.53
2022-09-06T04:25:09.431Z,86.71
2022-09-06T04:27:35.860Z,86.43
2022-09-06T04:30:02.279Z,87.26
2022-09-06T04:32:29.115Z,85.71
2022-09-06T04:34:55.511Z,84.66
2022-09-06T04:37:21.930Z,84.51
2022-09-06T04:39:49.112Z,84.55
2022-09-06T04:42:15.692Z,85.16
2022-09-06T04:44:42.632Z,84.78
2022-09-06T04:47:18.471Z,85.85
2022-09-06T04:49:45.784Z,86.27
2022-09-06T04:52:12.397Z,85.62
2022-09-06T04:54:38.957Z,88.63
2022-09-06T04:57:05.928Z,88.22
2022-09-06T04:59:32.765Z,88.09
2022-09-06T05:01:59.320Z,87.74
2022-09-06T05:04:26.449Z,89.13
2022-09-06T05:07:11.356Z,89.05
2022-09-06T05:09:37.807Z,88.78
2022-09-06T05:12:04.614Z,88.47
2022-09-06T05:14:31.407Z,89.48
2022-09-06T05:16:57.975Z,89.67
2022-09-06T05:19:24.991Z,88.88
2022-09-06T05:21:52.676Z,88.84
2022-09-06T05:24:19.170Z,88.33
2022-09-06T05:26:45.514Z,88.31
2022-09-06T05:29:12.537Z,88.12
2022-09-06T05:31:38.981Z,87.73
2022-09-06T05:34:06.074Z,87.56
2022-09-06T05:36:32.929Z,87.63
2022-09-06T05:38:59.974Z,87.92
2022-09-06T05:41:27.085Z,89.69
2022-09-06T05:43:53.672Z,90.38
2022-09-06T05:46:20.639Z,90.21
2022-09-06T05:49:07.834Z,90.35
2022-09-06T05:51:34.454Z,89.99
2022-09-06T05:54:01.363Z,90.65
2022-09-06T05:56:28.377Z,90.79
2022-09-06T05:58:54.743Z,91.00
2022-09-06T06:01:27.094Z,91.49
2022-09-06T06:04:02.072Z,90.66
2022-09-06T06:06:34.292Z,90.09
2022-09-06T06:09:01.272Z,87.97
2022-09-06T06:11:28.267Z,87.63
2022-09-06T06:13:55.316Z,87.89
2022-09-06T06:16:22.946Z,88.33
2022-09-06T06:18:52.272Z,88.34
2022-09-06T06:21:21.937Z,88.99
2022-09-06T06:23:56.959Z,89.42
2022-09-06T06:26:24.249Z,88.38
2022-09-06T06:28:51.513Z,88.26
2022-09-06T06:31:19.364Z,87.09
2022-09-06T06:33:46.235Z,87.77
2022-09-06T06:36:13.502Z,87.08
2022-09-06T06:38:42.265Z,87.41
2022-09-06T06:41:11.024Z,87.69
2022-09-06T06:43:37.954Z,87.69
2022-09-06T06:46:09.889Z,87.40
2022-09-06T06:48:40.507Z,85.64
2022-09-06T06:51:08.063Z,85.75
2022-09-06T06:53:35.314Z,85.10
2022-09-06T06:56:02.669Z,85.96
2022-09-06T06:58:30.775Z,85.72
2022-09-06T07:00:57.211Z,85.50
2022-09-06T07:03:24.404Z,85.07
2022-09-06T07:08:38.467Z,83.85
2022-09-06T07:11:06.947Z,80.83
2022-09-06T07:13:34.487Z,81.49
2022-09-06T07:16:21.560Z,80.71
2022-09-06T07:18:52.496Z,80.25
2022-09-06T07:21:41.942Z,80.44
2022-09-06T07:24:09.786Z,79.17
2022-09-06T07:26:38.496Z,78.14
2022-09-06T07:29:05.923Z,78.08
2022-09-06T07:34:20.359Z,81.66
2022-09-06T07:36:47.427Z,79.75
2022-09-06T07:39:14.095Z,80.59
2022-09-06T07:41:40.674Z,78.67
2022-09-06T07:44:07.812Z,78.10
2022-09-06T07:46:34.543Z,76.27
2022-09-06T07:49:07.555Z,76.45
2022-09-06T07:51:34.099Z,76.15
2022-09-06T07:54:29.263Z,76.67
2022-09-06T07:56:47.095Z,75.01
2022-09-06T07:59:13.505Z,77.52
2022-09-06T08:01:40.808Z,77.17
2022-09-06T08:04:15.860Z,74.11
2022-09-06T08:09:38.875Z,75.12
2022-09-06T08:12:08.047Z,76.07
2022-09-06T08:14:35.111Z,76.35
2022-09-06T08:17:03.144Z,77.42
2022-09-06T08:19:29.585Z,74.97
2022-09-06T08:21:56.624Z,74.02
2022-09-06T08:24:23.111Z,73.79
2022-09-06T08:26:49.767Z,74.63
2022-09-06T08:29:16.583Z,73.28
2022-09-06T08:31:44.666Z,72.52
2022-09-06T08:34:14.211Z,75.41
2022-09-06T08:36:42.004Z,75.35
2022-09-06T08:39:09.923Z,76.36
2022-09-06T08:42:01.207Z,75.47
2022-09-06T08:44:58.498Z,73.27
2022-09-06T08:47:25.831Z,73.07
2022-09-06T08:50:02.403Z,72.86
2022-09-06T08:55:43.322Z,71.34
2022-09-06T08:58:34.935Z,71.70
2022-09-06T09:01:11.333Z,70.98
2022-09-06T09:03:40.403Z,70.73
2022-09-06T09:06:10.059Z,70.03
2022-09-06T09:08:48.438Z,69.20
2022-09-06T09:11:23.551Z,70.54
2022-09-06T09:14:03.330Z,71.13
2022-09-06T09:16:29.986Z,68.97
2022-09-06T09:19:01.431Z,69.39
2022-09-06T09:21:31.278Z,68.11
2022-09-06T09:24:02.821Z,67.17
2022-09-06T09:26:37.103Z,68.52
2022-09-06T09:29:10.910Z,67.92
2022-09-06T09:31:51.318Z,68.28
2022-09-06T09:34:34.733Z,68.16
2022-09-06T09:40:05.755Z,66.58
2022-09-06T09:42:36.652Z,67.24
2022-09-06T09:45:22.592Z,65.18
2022-09-06T09:47:49.611Z,66.12
2022-09-06T09:50:25.655Z,67.39
2022-09-06T09:52:52.674Z,66.86
2022-09-06T09:55:24.915Z,66.35
2022-09-06T09:57:54.663Z,65.60
2022-09-06T10:00:39.989Z,65.37
2022-09-06T10:03:26.988Z,64.59
2022-09-06T10:06:02.629Z,66.37
2022-09-06T10:08:33.753Z,64.03
2022-09-06T10:11:01.321Z,62.25
2022-09-06T10:13:29.625Z,60.69
2022-09-06T10:15:58.855Z,60.88
2022-09-06T10:18:44.802Z,59.02
2022-09-06T10:21:16.270Z,58.40
2022-09-06T10:27:02.437Z,57.51
2022-09-06T10:29:52.862Z,58.13
2022-09-06T10:32:37.611Z,58.66
2022-09-06T10:35:24.180Z,55.27
2022-09-06T10:38:16.947Z,56.65
2022-09-06T10:40:56.428Z,54.30
2022-09-06T10:43:27.627Z,54.62
2022-09-06T10:45:58.216Z,57.88
2022-09-06T10:48:31.038Z,59.21
2022-09-06T10:50:58.540Z,60.06
2022-09-06T10:53:51.551Z,60.25
2022-09-06T10:56:39.939Z,56.43
2022-09-06T11:02:19.531Z,57.74
2022-09-06T11:10:37.828Z,59.00
2022-09-06T11:13:17.181Z,59.95
2022-09-06T11:15:47.238Z,60.46
2022-09-06T11:18:32.498Z,60.03
2022-09-06T11:21:17.482Z,60.27
2022-09-06T11:24:12.201Z,60.30
2022-09-06T11:27:01.352Z,59.71
2022-09-06T11:29:29.972Z,59.65
2022-09-06T11:35:01.416Z,56.58
2022-09-06T11:37:41.658Z,53.32
2022-09-06T11:42:54.994Z,57.26
2022-09-06T11:45:51.893Z,57.22
2022-09-06T11:48:24.751Z,56.49
2022-09-06T11:50:54.240Z,56.01
2022-09-06T11:53:23.832Z,57.95
2022-09-06T11:56:00.088Z,56.19
2022-09-06T11:58:40.049Z,54.83
2022-09-06T12:01:12.896Z,53.43
2022-09-06T12:04:09.075Z,55.76
2022-09-06T12:07:04.083Z,55.17
2022-09-06T12:09:30.365Z,54.75
2022-09-06T12:11:58.680Z,53.73
2022-09-06T12:14:33.032Z,55.21
2022-09-06T12:16:59.334Z,53.97
2022-09-06T12:19:47.310Z,50.56
2022-09-06T12:22:40.240Z,50.30
2022-09-06T12:25:34.586Z,49.10
2022-09-06T12:28:19.883Z,49.78
2022-09-06T12:30:47.964Z,45.04
2022-09-06T12:33:26.074Z,43.84
2022-09-06T12:38:25.128Z,50.09
2022-09-06T12:40:58.075Z,50.01
2022-09-06T12:43:24.908Z,48.79
2022-09-06T12:45:52.380Z,48.84
2022-09-06T12:48:58.880Z,48.23
2022-09-06T12:51:25.678Z,46.17
2022-09-06T12:53:54.969Z,50.27
2022-09-06T12:56:24.026Z,48.53
2022-09-06T12:58:50.396Z,45.53
2022-09-06T13:01:26.650Z,43.60
2022-09-06T13:04:04.992Z,47.92
2022-09-06T13:06:36.615Z,48.36
2022-09-06T13:09:03.572Z,47.62
2022-09-06T13:11:40.074Z,50.94
2022-09-06T13:14:14.287Z,49.41
2022-09-06T13:16:48.450Z,48.98
2022-09-06T13:19:18.848Z,51.24
2022-09-06T13:21:46.667Z,50.62
2022-09-06T13:24:20.614Z,52.13
2022-09-06T13:26:47.069Z,51.58
2022-09-06T13:29:16.525Z,51.76
2022-09-06T13:31:52.647Z,51.55
2022-09-06T13:34:30.403Z,53.35
2022-09-06T13:37:04.158Z,53.80
2022-09-06T13:39:31.937Z,53.08
2022-09-06T13:42:24.769Z,54.03
2022-09-06T13:44:51.223Z,51.14
2022-09-06T13:47:17.561Z,51.83
2022-09-06T13:49:44.553Z,52.17
2022-09-06T13:52:10.928Z,51.93
2022-09-06T13:54:37.316Z,51.87
2022-09-06T13:57:04.509Z,50.99
2022-09-06T13:59:31.574Z,50.44
2022-09-06T14:02:05.990Z,50.68
2022-09-06T14:04:32.521Z,50.13
2022-09-06T14:06:59.634Z,51.76
2022-09-06T14:09:26.083Z,53.41
2022-09-06T14:11:52.484Z,53.92
2022-09-06T14:14:19.959Z,54.31
2022-09-06T14:16:47.586Z,55.66
2022-09-06T14:19:14.573Z,55.35
2022-09-06T14:21:41.419Z,57.41
2022-09-06T14:24:08.462Z,57.07
2022-09-06T14:26:36.510Z,57.32
2022-09-06T14:29:03.648Z,56.75
2022-09-06T14:31:32.416Z,56.14
2022-09-06T14:33:59.486Z,55.67
2022-09-06T14:36:29.760Z,56.29
2022-09-06T14:38:58.411Z,56.54
2022-09-06T14:41:25.037Z,57.28
2022-09-06T14:43:55.004Z,57.92
2022-09-06T14:46:24.056Z,56.21
2022-09-06T14:49:10.396Z,55.59
2022-09-06T14:51:38.426Z,56.95
2022-09-06T14:54:08.997Z,55.79
2022-09-06T14:56:36.673Z,55.68
2022-09-06T14:59:03.633Z,57.85
2022-09-06T15:01:37.811Z,57.48
2022-09-06T15:04:07.961Z,57.91
2022-09-06T15:06:36.719Z,57.45
2022-09-06T15:09:04.492Z,58.59
2022-09-06T15:11:34.895Z,59.43
2022-09-06T15:14:31.361Z,58.62
2022-09-06T15:17:00.341Z,59.91
2022-09-06T15:19:29.329Z,60.42
2022-09-06T15:21:58.314Z,59.99
2022-09-06T15:24:25.514Z,61.03
2022-09-06T15:26:52.820Z,61.08
2022-09-06T15:29:20.279Z,60.94
2022-09-06T15:31:50.357Z,62.11
2022-09-06T15:34:22.663Z,63.58
2022-09-06T15:36:50.429Z,62.99
2022-09-06T15:39:18.063Z,63.69
2022-09-06T15:41:44.540Z,64.14
2022-09-06T15:44:13.653Z,63.61
2022-09-06T15:46:52.437Z,63.17
2022-09-06T15:49:27.839Z,64.07
2022-09-06T15:51:59.862Z,63.72
2022-09-06T15:54:45.914Z,63.53
2022-09-06T15:57:14.462Z,64.65
2022-09-06T15:59:41.192Z,64.64
2022-09-06T16:02:08.374Z,64.95
2022-09-06T16:04:35.147Z,65.15
2022-09-06T16:07:01.564Z,64.47
2022-09-06T16:09:28.345Z,65.60
2022-09-06T16:11:55.383Z,64.90
2022-09-06T16:14:21.831Z,65.53
2022-09-06T16:16:48.325Z,66.15
2022-09-06T16:19:15.098Z,66.28
2022-09-06T16:21:42.800Z,65.20
2022-09-06T16:24:12.117Z,64.87
2022-09-06T16:26:42.060Z,64.36
2022-09-06T16:29:13.179Z,64.87
2022-09-06T16:31:40.781Z,64.52
2022-09-06T16:34:09.252Z,64.80
2022-09-06T16:36:35.635Z,64.58
2022-09-06T16:39:02.136Z,63.74
2022-09-06T16:41:46.256Z,63.65
2022-09-06T16:44:18.465Z,65.52
2022-09-06T16:46:47.195Z,66.39
2022-09-06T16:49:16.645Z,68.10
2022-09-06T16:51:43.223Z,68.15
2022-09-06T16:54:10.123Z,68.52
2022-09-06T16:56:36.764Z,66.91
2022-09-06T16:59:06.400Z,67.13
2022-09-06T17:01:33.847Z,67.89
2022-09-06T17:04:02.108Z,67.36
2022-09-06T17:06:29.808Z,68.89
2022-09-06T17:08:58.745Z,69.51
2022-09-06T17:11:27.220Z,71.46
2022-09-06T17:13:54.953Z,71.87
2022-09-06T17:16:41.138Z,71.61
2022-09-06T17:19:08.998Z,71.71
2022-09-06T17:21:37.026Z,70.80
2022-09-06T17:24:05.120Z,70.86
2022-09-06T17:26:34.501Z,70.69
2022-09-06T17:29:02.307Z,71.01
2022-09-06T17:31:29.076Z,71.18
2022-09-06T17:33:56.150Z,72.23
2022-09-06T17:36:29.491Z,73.42
2022-09-06T17:39:08.395Z,73.75
2022-09-06T17:41:45.568Z,74.71
2022-09-06T17:44:14.683Z,75.81
2022-09-06T17:46:57.167Z,75.79
2022-09-06T17:49:28.527Z,75.08
2022-09-06T17:51:55.190Z,75.04
2022-09-06T17:54:21.579Z,75.87
2022-09-06T17:56:48.463Z,76.58
2022-09-06T17:59:15.514Z,78.90
2022-09-06T18:01:43.875Z,79.84
2022-09-06T18:04:11.783Z,81.88
2022-09-06T18:06:40.748Z,82.04
2022-09-06T18:09:10.146Z,82.29
2022-09-06T18:11:38.504Z,81.47
2022-09-06T18:14:09.852Z,80.81
2022-09-06T18:16:38.221Z,80.67
2022-09-06T18:19:07.540Z,80.17
2022-09-06T18:21:36.624Z,80.05
2022-09-06T18:24:04.276Z,80.25
2022-09-06T18:26:31.159Z,80.29
2022-09-06T18:28:57.611Z,80.66
2022-09-06T18:31:25.594Z,81.27
2022-09-06T18:33:53.096Z,81.50
2022-09-06T18:36:20.030Z,81.68
2022-09-06T18:38:46.544Z,82.38
2022-09-06T18:41:34.885Z,82.30
2022-09-06T18:44:03.048Z,82.20
2022-09-06T18:46:31.207Z,82.70
2022-09-06T18:48:58.276Z,82.40
2022-09-06T18:51:25.040Z,82.57
2022-09-06T18:53:52.742Z,82.97
2022-09-06T18:56:20.186Z,83.68
2022-09-06T18:58:47.010Z,84.51
2022-09-06T19:01:16.113Z,84.55
2022-09-06T19:03:44.475Z,85.69
2022-09-06T19:06:13.879Z,86.35
2022-09-06T19:08:41.419Z,86.74
2022-09-06T19:11:16.423Z,86.59
2022-09-06T19:13:43.994Z,85.96
2022-09-06T19:16:12.365Z,85.79
2022-09-06T19:18:40.500Z,85.38
2022-09-06T19:21:09.846Z,85.27
2022-09-06T19:23:39.346Z,85.34
2022-09-06T19:26:13.868Z,85.66
2022-09-06T19:28:41.139Z,85.71
2022-09-06T19:31:13.194Z,85.79
2022-09-06T19:33:41.152Z,85.99
2022-09-06T19:36:11.809Z,86.19
2022-09-06T19:38:59.531Z,86.75
2022-09-06T19:41:26.094Z,86.20
2022-09-06T19:43:54.082Z,86.07
2022-09-06T19:46:22.255Z,85.79
2022-09-06T19:48:50.891Z,86.09
2022-09-06T19:51:18.635Z,87.22
2022-09-06T19:53:50.883Z,87.79
2022-09-06T19:56:22.184Z,89.00
2022-09-06T19:58:54.221Z,89.56
2022-09-06T20:01:21.273Z,90.79
2022-09-06T20:03:47.832Z,90.45
2022-09-06T20:06:15.087Z,89.31
2022-09-06T20:08:41.940Z,88.19
2022-09-06T20:11:09.933Z,88.39
2022-09-06T20:13:38.466Z,87.74
2022-09-06T20:16:06.891Z,87.34
2022-09-06T20:18:35.304Z,86.84
2022-09-06T20:21:03.304Z,87.08
2022-09-06T20:23:31.429Z,87.31
2022-09-06T20:26:07.241Z,87.22
2022-09-06T20:28:35.218Z,87.00
2022-09-06T20:31:07.308Z,87.23
2022-09-06T20:33:36.123Z,87.35
2022-09-06T20:36:06.682Z,87.07
2022-09-06T20:38:36.511Z,87.43
2022-09-06T20:41:09.795Z,87.20
2022-09-06T20:43:38.524Z,87.32
2022-09-06T20:46:17.725Z,87.14
2022-09-06T20:48:46.509Z,87.30
2022-09-06T20:51:19.051Z,87.00
2022-09-06T20:53:54.509Z,87.23
2022-09-06T20:56:24.533Z,87.21
2022-09-06T20:58:54.183Z,87.05
2022-09-06T21:01:24.619Z,86.44
2022-09-06T21:03:54.758Z,86.74
2022-09-06T21:06:23.181Z,87.15
2022-09-06T21:08:51.585Z,87.03
2022-09-06T21:11:20.612Z,87.08
2022-09-06T21:13:52.126Z,87.22
2022-09-06T21:16:24.688Z,87.03
2022-09-06T21:18:57.426Z,87.35
2022-09-06T21:21:26.091Z,88.44
2022-09-06T21:23:53.995Z,88.41
2022-09-06T21:26:22.620Z,87.94
2022-09-06T21:28:50.954Z,87.44
2022-09-06T21:31:22.474Z,87.24
2022-09-06T21:33:55.807Z,87.70
2022-09-06T21:36:25.103Z,87.63
2022-09-06T21:38:56.759Z,87.51
2022-09-06T21:41:24.447Z,88.29
2022-09-06T21:43:59.264Z,88.25
2022-09-06T21:46:32.505Z,87.91
2022-09-06T21:49:02.653Z,88.14
2022-09-06T21:51:29.383Z,88.46
2022-09-06T21:53:59.104Z,88.22
2022-09-06T21:56:26.850Z,87.74
2022-09-06T21:58:57.684Z,87.50
2022-09-06T22:01:30.106Z,86.95
2022-09-06T22:03:56.503Z,86.16
2022-09-06T22:06:26.224Z,87.04
2022-09-06T22:08:53.859Z,87.06
2022-09-06T22:11:22.620Z,87.36
2022-09-06T22:13:50.379Z,86.98
2022-09-06T22:16:19.852Z,86.95
2022-09-06T22:18:48.665Z,87.11
2022-09-06T22:21:20.335Z,88.66
2022-09-06T22:23:54.934Z,88.24
2022-09-06T22:26:22.102Z,87.63
2022-09-06T22:28:54.063Z,87.12
2022-09-06T22:31:20.685Z,87.15
2022-09-06T22:33:47.116Z,87.24
2022-09-06T22:36:13.884Z,87.95
2022-09-06T22:38:40.363Z,88.18
2022-09-06T22:41:06.722Z,88.20
2022-09-06T22:43:33.631Z,88.86
2022-09-06T22:46:08.170Z,89.29
2022-09-06T22:48:35.399Z,89.98
2022-09-06T22:51:03.290Z,89.27
2022-09-06T22:53:30.633Z,88.42
2022-09-06T22:55:57.384Z,88.12
2022-09-06T22:58:25.160Z,87.76
2022-09-06T23:00:51.695Z,87.43
2022-09-06T23:03:18.622Z,87.40
2022-09-06T23:05:44.998Z,87.23
2022-09-06T23:08:12.059Z,87.95
2022-09-06T23:10:41.597Z,87.56
2022-09-06T23:13:09.539Z,87.66
2022-09-06T23:15:41.132Z,87.96
2022-09-06T23:18:08.312Z,88.72
2022-09-06T23:20:36.218Z,89.20
2022-09-06T23:23:03.712Z,88.77
2022-09-06T23:25:30.246Z,89.41
2022-09-06T23:27:59.371Z,90.02
2022-09-06T23:30:26.222Z,89.76
2022-09-06T23:32:52.629Z,89.56
2022-09-06T23:35:19.423Z,88.79
2022-09-06T23:37:49.903Z,87.64
2022-09-06T23:40:16.925Z,87.54
2022-09-06T23:42:43.927Z,87.10
2022-09-06T23:45:10.414Z,87.58
2022-09-06T23:47:36.886Z,88.42
2022-09-06T23:50:04.643Z,90.53
2022-09-06T23:52:31.006Z,90.59
2022-09-06T23:54:57.448Z,90.04
2022-09-06T23:57:24.350Z,89.85
2022-09-06T23:59:50.768Z,89.41
